sensor_id;sensor_type;location;lat;lon;timestamp;pressure;altitude;pressure_sealevel;temperature;humidity
6435;BME280;3250;42.694;23.278;2023-12-20T00:01:29;95198.84;;;1.58;87.20
6435;BME280;3250;42.694;23.278;2023-12-20T00:03:54;95196.25;;;1.58;86.94
6435;BME280;3250;42.694;23.278;2023-12-20T00:06:19;95194.78;;;1.55;87.01
6435;BME280;3250;42.694;23.278;2023-12-20T00:08:45;95173.28;;;1.45;86.96
6435;BME280;3250;42.694;23.278;2023-12-20T00:11:11;95179.50;;;1.52;87.69
6435;BME280;3250;42.694;23.278;2023-12-20T00:13:36;95181.16;;;1.53;87.46
6435;BME280;3250;42.694;23.278;2023-12-20T00:16:02;95177.22;;;1.49;87.44
6435;BME280;3250;42.694;23.278;2023-12-20T00:18:27;95177.22;;;1.49;87.01
6435;BME280;3250;42.694;23.278;2023-12-20T00:20:52;95170.56;;;1.46;87.38
6435;BME280;3250;42.694;23.278;2023-12-20T00:23:18;95165.06;;;1.49;87.30
6435;BME280;3250;42.694;23.278;2023-12-20T00:25:43;95164.09;;;1.50;87.85
6435;BME280;3250;42.694;23.278;2023-12-20T00:28:09;95157.00;;;1.52;87.12
6435;BME280;3250;42.694;23.278;2023-12-20T00:30:34;95157.13;;;1.51;86.73
6435;BME280;3250;42.694;23.278;2023-12-20T00:33:00;95153.38;;;1.45;86.94
6435;BME280;3250;42.694;23.278;2023-12-20T00:35:25;95151.59;;;1.46;86.60
6435;BME280;3250;42.694;23.278;2023-12-20T00:37:51;95142.84;;;1.47;86.91
6435;BME280;3250;42.694;23.278;2023-12-20T00:40:16;95146.00;;;1.41;86.57
6435;BME280;3250;42.694;23.278;2023-12-20T00:42:42;95136.91;;;1.37;86.65
6435;BME280;3250;42.694;23.278;2023-12-20T00:45:07;95145.19;;;1.40;86.68
6435;BME280;3250;42.694;23.278;2023-12-20T00:47:33;95143.41;;;1.41;86.37
6435;BME280;3250;42.694;23.278;2023-12-20T00:49:58;95140.81;;;1.41;86.82
6435;BME280;3250;42.694;23.278;2023-12-20T00:52:24;95135.63;;;1.41;87.30
6435;BME280;3250;42.694;23.278;2023-12-20T00:54:50;95132.53;;;1.37;87.03
6435;BME280;3250;42.694;23.278;2023-12-20T00:57:16;95110.16;;;1.19;86.64
6435;BME280;3250;42.694;23.278;2023-12-20T00:59:41;95127.78;;;1.33;86.85
6435;BME280;3250;42.694;23.278;2023-12-20T01:02:07;95111.47;;;1.23;87.11
6435;BME280;3250;42.694;23.278;2023-12-20T01:04:34;95127.28;;;1.29;86.35
6435;BME280;3250;42.694;23.278;2023-12-20T01:06:59;95119.19;;;1.32;87.42
6435;BME280;3250;42.694;23.278;2023-12-20T01:09:24;95116.44;;;1.34;87.53
6435;BME280;3250;42.694;23.278;2023-12-20T01:11:52;95113.19;;;1.32;87.73
6435;BME280;3250;42.694;23.278;2023-12-20T01:14:18;95108.97;;;1.31;87.60
6435;BME280;3250;42.694;23.278;2023-12-20T01:16:44;95114.00;;;1.32;87.31
6435;BME280;3250;42.694;23.278;2023-12-20T01:19:09;95108.31;;;1.29;87.19
6435;BME280;3250;42.694;23.278;2023-12-20T01:21:35;95108.47;;;1.27;87.39
6435;BME280;3250;42.694;23.278;2023-12-20T01:24:00;95107.94;;;1.24;87.66
6435;BME280;3250;42.694;23.278;2023-12-20T01:26:26;95078.00;;;1.11;87.32
6435;BME280;3250;42.694;23.278;2023-12-20T01:28:51;95084.66;;;1.14;86.68
6435;BME280;3250;42.694;23.278;2023-12-20T01:31:17;95091.69;;;1.22;87.18
6435;BME280;3250;42.694;23.278;2023-12-20T01:33:43;95084.91;;;1.21;87.37
6435;BME280;3250;42.694;23.278;2023-12-20T01:36:08;95077.69;;;1.14;86.87
6435;BME280;3250;42.694;23.278;2023-12-20T01:38:34;95082.59;;;1.18;87.26
6435;BME280;3250;42.694;23.278;2023-12-20T01:40:59;95079.56;;;1.22;87.12
6435;BME280;3250;42.694;23.278;2023-12-20T01:43:25;95065.28;;;1.18;86.84
6435;BME280;3250;42.694;23.278;2023-12-20T01:45:51;95068.38;;;1.22;85.89
6435;BME280;3250;42.694;23.278;2023-12-20T01:48:19;95065.28;;;1.18;86.09
6435;BME280;3250;42.694;23.278;2023-12-20T01:50:45;95057.91;;;1.13;86.08
6435;BME280;3250;42.694;23.278;2023-12-20T01:53:12;95049.66;;;1.10;85.55
6435;BME280;3250;42.694;23.278;2023-12-20T01:55:39;95052.91;;;1.12;86.62
6435;BME280;3250;42.694;23.278;2023-12-20T01:58:06;95058.25;;;1.10;86.20
6435;BME280;3250;42.694;23.278;2023-12-20T02:00:33;95048.81;;;1.09;87.17
6435;BME280;3250;42.694;23.278;2023-12-20T02:03:01;95055.50;;;1.12;86.36
6435;BME280;3250;42.694;23.278;2023-12-20T02:05:28;95050.00;;;0.97;86.73
6435;BME280;3250;42.694;23.278;2023-12-20T02:07:54;95032.09;;;0.86;87.19
6435;BME280;3250;42.694;23.278;2023-12-20T02:10:19;95051.13;;;0.95;87.01
6435;BME280;3250;42.694;23.278;2023-12-20T02:12:45;95042.53;;;0.94;86.81
6435;BME280;3250;42.694;23.278;2023-12-20T02:15:11;95035.41;;;0.96;87.20
6435;BME280;3250;42.694;23.278;2023-12-20T02:17:38;95040.44;;;0.98;87.34
6435;BME280;3250;42.694;23.278;2023-12-20T02:20:04;95029.94;;;0.99;86.78
6435;BME280;3250;42.694;23.278;2023-12-20T02:22:31;95028.59;;;0.95;86.55
6435;BME280;3250;42.694;23.278;2023-12-20T02:24:56;95028.69;;;1.03;86.90
6435;BME280;3250;42.694;23.278;2023-12-20T02:27:23;95026.47;;;1.08;86.78
6435;BME280;3250;42.694;23.278;2023-12-20T02:29:49;95026.47;;;1.08;86.20
6435;BME280;3250;42.694;23.278;2023-12-20T02:32:17;95017.59;;;1.11;86.49
6435;BME280;3250;42.694;23.278;2023-12-20T02:34:43;95021.28;;;1.08;86.48
6435;BME280;3250;42.694;23.278;2023-12-20T02:37:08;95004.16;;;0.98;87.22
6435;BME280;3250;42.694;23.278;2023-12-20T02:39:34;95008.75;;;1.04;86.72
6435;BME280;3250;42.694;23.278;2023-12-20T02:41:59;94999.88;;;1.06;86.75
6435;BME280;3250;42.694;23.278;2023-12-20T02:44:25;95008.09;;;1.02;87.06
6435;BME280;3250;42.694;23.278;2023-12-20T02:46:50;94988.94;;;0.95;86.43
6435;BME280;3250;42.694;23.278;2023-12-20T02:49:16;95008.94;;;1.02;86.69
6435;BME280;3250;42.694;23.278;2023-12-20T02:51:41;95004.69;;;1.01;86.73
6435;BME280;3250;42.694;23.278;2023-12-20T02:54:07;95002.53;;;0.97;86.94
6435;BME280;3250;42.694;23.278;2023-12-20T02:56:33;94993.59;;;0.91;86.65
6435;BME280;3250;42.694;23.278;2023-12-20T02:58:58;95005.13;;;0.97;87.50
6435;BME280;3250;42.694;23.278;2023-12-20T03:01:24;95012.75;;;0.98;87.64
6435;BME280;3250;42.694;23.278;2023-12-20T03:03:49;95006.16;;;1.04;87.68
6435;BME280;3250;42.694;23.278;2023-12-20T03:06:18;95001.44;;;0.99;88.22
6435;BME280;3250;42.694;23.278;2023-12-20T03:08:44;95002.53;;;0.97;87.50
6435;BME280;3250;42.694;23.278;2023-12-20T03:11:10;94978.66;;;0.85;87.44
6435;BME280;3250;42.694;23.278;2023-12-20T03:13:35;94981.38;;;0.84;87.04
6435;BME280;3250;42.694;23.278;2023-12-20T03:16:01;94956.28;;;0.66;86.77
6435;BME280;3250;42.694;23.278;2023-12-20T03:18:26;94980.44;;;0.85;87.43
6435;BME280;3250;42.694;23.278;2023-12-20T03:20:53;94987.06;;;0.87;87.92
6435;BME280;3250;42.694;23.278;2023-12-20T03:23:19;94988.56;;;0.90;87.10
6435;BME280;3250;42.694;23.278;2023-12-20T03:25:44;94997.28;;;0.89;87.17
6435;BME280;3250;42.694;23.278;2023-12-20T03:28:10;94991.75;;;0.84;87.34
6435;BME280;3250;42.694;23.278;2023-12-20T03:30:35;94981.88;;;0.87;87.74
6435;BME280;3250;42.694;23.278;2023-12-20T03:33:01;94982.94;;;0.77;87.45
6435;BME280;3250;42.694;23.278;2023-12-20T03:35:26;94980.50;;;0.75;87.54
6435;BME280;3250;42.694;23.278;2023-12-20T03:37:52;94970.88;;;0.67;87.99
6435;BME280;3250;42.694;23.278;2023-12-20T03:40:17;94975.47;;;0.73;88.10
6435;BME280;3250;42.694;23.278;2023-12-20T03:42:42;94979.28;;;0.69;87.86
6435;BME280;3250;42.694;23.278;2023-12-20T03:45:08;94975.91;;;0.69;87.57
6435;BME280;3250;42.694;23.278;2023-12-20T03:47:34;94962.50;;;0.56;88.23
6435;BME280;3250;42.694;23.278;2023-12-20T03:49:59;94970.06;;;0.67;88.63
6435;BME280;3250;42.694;23.278;2023-12-20T03:52:25;94982.34;;;0.65;88.79
6435;BME280;3250;42.694;23.278;2023-12-20T03:54:50;94974.44;;;0.66;87.91
6435;BME280;3250;42.694;23.278;2023-12-20T03:57:16;94971.63;;;0.60;88.90
6435;BME280;3250;42.694;23.278;2023-12-20T03:59:41;94976.72;;;0.52;88.55
6435;BME280;3250;42.694;23.278;2023-12-20T04:02:07;94970.19;;;0.48;88.00
6435;BME280;3250;42.694;23.278;2023-12-20T04:04:32;94971.44;;;0.44;86.89
6435;BME280;3250;42.694;23.278;2023-12-20T04:06:58;94966.94;;;0.46;88.03
6435;BME280;3250;42.694;23.278;2023-12-20T04:09:23;94955.63;;;0.47;87.26
6435;BME280;3250;42.694;23.278;2023-12-20T04:11:48;94961.38;;;0.41;87.41
6435;BME280;3250;42.694;23.278;2023-12-20T04:14:14;94951.63;;;0.34;87.32
6435;BME280;3250;42.694;23.278;2023-12-20T04:16:39;94936.72;;;0.19;88.18
6435;BME280;3250;42.694;23.278;2023-12-20T04:19:05;94941.97;;;0.27;88.88
6435;BME280;3250;42.694;23.278;2023-12-20T04:21:30;94944.13;;;0.31;89.56
6435;BME280;3250;42.694;23.278;2023-12-20T04:23:56;94939.78;;;0.32;89.47
6435;BME280;3250;42.694;23.278;2023-12-20T04:26:22;94940.59;;;0.32;88.65
6435;BME280;3250;42.694;23.278;2023-12-20T04:28:47;94942.66;;;0.29;88.95
6435;BME280;3250;42.694;23.278;2023-12-20T04:31:12;94946.06;;;0.29;89.29
6435;BME280;3250;42.694;23.278;2023-12-20T04:33:38;94931.78;;;0.25;88.82
6435;BME280;3250;42.694;23.278;2023-12-20T04:36:04;94930.53;;;0.29;88.85
6435;BME280;3250;42.694;23.278;2023-12-20T04:38:30;94934.88;;;0.29;89.55
6435;BME280;3250;42.694;23.278;2023-12-20T04:40:55;94924.03;;;0.25;88.68
6435;BME280;3250;42.694;23.278;2023-12-20T04:43:21;94921.34;;;0.17;89.35
6435;BME280;3250;42.694;23.278;2023-12-20T04:45:46;94920.31;;;0.28;89.12
6435;BME280;3250;42.694;23.278;2023-12-20T04:48:12;94934.59;;;0.32;89.44
6435;BME280;3250;42.694;23.278;2023-12-20T04:50:37;94925.22;;;0.31;89.82
6435;BME280;3250;42.694;23.278;2023-12-20T04:53:03;94925.34;;;0.29;89.84
6435;BME280;3250;42.694;23.278;2023-12-20T04:55:29;94912.03;;;0.24;89.83
6435;BME280;3250;42.694;23.278;2023-12-20T04:57:54;94912.41;;;0.29;89.74
6435;BME280;3250;42.694;23.278;2023-12-20T05:00:20;94922.56;;;0.41;90.26
6435;BME280;3250;42.694;23.278;2023-12-20T05:02:45;94923.59;;;0.48;89.95
6435;BME280;3250;42.694;23.278;2023-12-20T05:05:11;94926.03;;;0.49;89.14
6435;BME280;3250;42.694;23.278;2023-12-20T05:07:36;94903.75;;;0.38;89.22
6435;BME280;3250;42.694;23.278;2023-12-20T05:10:03;94920.41;;;0.54;90.16
6435;BME280;3250;42.694;23.278;2023-12-20T05:12:30;94910.56;;;0.57;89.90
6435;BME280;3250;42.694;23.278;2023-12-20T05:14:56;94915.97;;;0.64;89.45
6435;BME280;3250;42.694;23.278;2023-12-20T05:17:21;94923.22;;;0.60;89.35
6435;BME280;3250;42.694;23.278;2023-12-20T05:19:47;94910.44;;;0.59;88.37
6435;BME280;3250;42.694;23.278;2023-12-20T05:22:12;94907.97;;;0.57;88.15
6435;BME280;3250;42.694;23.278;2023-12-20T05:24:38;94906.63;;;0.53;87.92
6435;BME280;3250;42.694;23.278;2023-12-20T05:27:03;94879.28;;;0.33;87.52
6435;BME280;3250;42.694;23.278;2023-12-20T05:29:29;94900.16;;;0.49;88.34
6435;BME280;3250;42.694;23.278;2023-12-20T05:31:54;94901.25;;;0.47;87.63
6435;BME280;3250;42.694;23.278;2023-12-20T05:34:20;94898.59;;;0.38;87.46
6435;BME280;3250;42.694;23.278;2023-12-20T05:36:45;94895.72;;;0.42;87.81
6435;BME280;3250;42.694;23.278;2023-12-20T05:39:11;94900.88;;;0.42;88.44
6435;BME280;3250;42.694;23.278;2023-12-20T05:41:37;94901.25;;;0.47;88.05
6435;BME280;3250;42.694;23.278;2023-12-20T05:44:02;94892.59;;;0.38;87.91
6435;BME280;3250;42.694;23.278;2023-12-20T05:46:28;94883.66;;;0.32;88.54
6435;BME280;3250;42.694;23.278;2023-12-20T05:48:53;94889.50;;;0.34;87.93
6435;BME280;3250;42.694;23.278;2023-12-20T05:51:19;94894.00;;;0.32;88.88
6435;BME280;3250;42.694;23.278;2023-12-20T05:53:44;94888.75;;;0.24;89.01
6435;BME280;3250;42.694;23.278;2023-12-20T05:56:10;94865.00;;;0.11;89.89
6435;BME280;3250;42.694;23.278;2023-12-20T05:58:36;94883.13;;;0.29;89.85
6435;BME280;3250;42.694;23.278;2023-12-20T06:01:04;94878.84;;;0.37;90.09
6435;BME280;3250;42.694;23.278;2023-12-20T06:03:30;94877.72;;;0.40;90.03
6435;BME280;3250;42.694;23.278;2023-12-20T06:05:56;94878.53;;;0.41;89.39
6435;BME280;3250;42.694;23.278;2023-12-20T06:08:21;94881.13;;;0.41;89.81
6435;BME280;3250;42.694;23.278;2023-12-20T06:10:47;94874.31;;;0.40;90.43
6435;BME280;3250;42.694;23.278;2023-12-20T06:13:12;94884.41;;;0.43;90.20
6435;BME280;3250;42.694;23.278;2023-12-20T06:15:39;94878.91;;;0.46;90.87
6435;BME280;3250;42.694;23.278;2023-12-20T06:18:07;94856.50;;;0.36;91.30
6435;BME280;3250;42.694;23.278;2023-12-20T06:20:33;94891.09;;;0.53;91.63
6435;BME280;3250;42.694;23.278;2023-12-20T06:22:58;94892.94;;;0.61;91.05
6435;BME280;3250;42.694;23.278;2023-12-20T06:25:24;94884.38;;;0.60;91.14
6435;BME280;3250;42.694;23.278;2023-12-20T06:27:50;94884.06;;;0.63;91.21
6435;BME280;3250;42.694;23.278;2023-12-20T06:30:16;94878.38;;;0.60;91.22
6435;BME280;3250;42.694;23.278;2023-12-20T06:32:42;94877.63;;;0.67;90.48
6435;BME280;3250;42.694;23.278;2023-12-20T06:35:08;94881.69;;;0.70;91.18
6435;BME280;3250;42.694;23.278;2023-12-20T06:37:34;94872.75;;;0.64;91.56
6435;BME280;3250;42.694;23.278;2023-12-20T06:39:59;94875.69;;;0.69;91.22
6435;BME280;3250;42.694;23.278;2023-12-20T06:42:25;94872.81;;;0.72;91.77
6435;BME280;3250;42.694;23.278;2023-12-20T06:44:50;94870.50;;;0.69;91.14
6435;BME280;3250;42.694;23.278;2023-12-20T06:47:15;94870.22;;;0.72;90.88
6435;BME280;3250;42.694;23.278;2023-12-20T06:49:41;94842.38;;;0.49;90.36
6435;BME280;3250;42.694;23.278;2023-12-20T06:52:06;94869.44;;;0.54;91.07
6435;BME280;3250;42.694;23.278;2023-12-20T06:54:32;94859.75;;;0.56;91.27
6435;BME280;3250;42.694;23.278;2023-12-20T06:57:00;94857.50;;;0.61;91.03
6435;BME280;3250;42.694;23.278;2023-12-20T06:59:25;94832.63;;;0.43;91.11
6435;BME280;3250;42.694;23.278;2023-12-20T07:01:51;94851.97;;;0.56;91.55
6435;BME280;3250;42.694;23.278;2023-12-20T07:04:16;94845.09;;;0.47;91.40
6435;BME280;3250;42.694;23.278;2023-12-20T07:06:46;94847.25;;;0.52;91.38
6435;BME280;3250;42.694;23.278;2023-12-20T07:09:11;94846.94;;;0.55;92.00
6435;BME280;3250;42.694;23.278;2023-12-20T07:11:38;94848.84;;;0.53;91.92
6435;BME280;3250;42.694;23.278;2023-12-20T07:14:06;94849.53;;;0.37;91.72
6435;BME280;3250;42.694;23.278;2023-12-20T07:16:32;94845.03;;;0.39;92.64
6435;BME280;3250;42.694;23.278;2023-12-20T07:18:57;94835.69;;;0.46;92.82
6435;BME280;3250;42.694;23.278;2023-12-20T07:21:23;94842.28;;;0.58;91.72
6435;BME280;3250;42.694;23.278;2023-12-20T07:23:48;94841.53;;;0.66;91.66
6435;BME280;3250;42.694;23.278;2023-12-20T07:26:15;94836.25;;;0.75;91.77
6435;BME280;3250;42.694;23.278;2023-12-20T07:28:40;94834.81;;;0.81;90.78
6435;BME280;3250;42.694;23.278;2023-12-20T07:31:06;94830.97;;;0.85;91.66
6435;BME280;3250;42.694;23.278;2023-12-20T07:33:31;94827.81;;;0.99;91.25
6435;BME280;3250;42.694;23.278;2023-12-20T07:35:59;94827.88;;;1.07;90.57
6435;BME280;3250;42.694;23.278;2023-12-20T07:38:24;94835.19;;;1.12;90.14
6435;BME280;3250;42.694;23.278;2023-12-20T07:40:50;94838.28;;;1.16;90.06
6435;BME280;3250;42.694;23.278;2023-12-20T07:43:15;94824.34;;;1.17;90.49
6435;BME280;3250;42.694;23.278;2023-12-20T07:45:41;94821.66;;;1.26;90.48
6435;BME280;3250;42.694;23.278;2023-12-20T07:48:07;94830.28;;;1.35;90.60
6435;BME280;3250;42.694;23.278;2023-12-20T07:50:32;94800.75;;;1.28;90.44
6435;BME280;3250;42.694;23.278;2023-12-20T07:52:58;94825.16;;;1.51;90.47
6435;BME280;3250;42.694;23.278;2023-12-20T07:55:26;94802.56;;;1.35;89.20
6435;BME280;3250;42.694;23.278;2023-12-20T07:57:51;94821.09;;;1.48;88.68
6435;BME280;3250;42.694;23.278;2023-12-20T08:00:17;94828.41;;;1.53;88.04
6435;BME280;3250;42.694;23.278;2023-12-20T08:02:43;94823.72;;;1.57;87.99
6435;BME280;3250;42.694;23.278;2023-12-20T08:05:08;94828.44;;;1.61;88.35
6435;BME280;3250;42.694;23.278;2023-12-20T08:07:34;94821.50;;;1.70;87.68
6435;BME280;3250;42.694;23.278;2023-12-20T08:09:59;94823.97;;;1.79;87.78
6435;BME280;3250;42.694;23.278;2023-12-20T08:12:25;94824.13;;;1.78;86.98
6435;BME280;3250;42.694;23.278;2023-12-20T08:14:53;94811.94;;;1.70;86.23
6435;BME280;3250;42.694;23.278;2023-12-20T08:17:18;94813.41;;;1.73;86.29
6435;BME280;3250;42.694;23.278;2023-12-20T08:19:44;94804.19;;;1.86;86.56
6435;BME280;3250;42.694;23.278;2023-12-20T08:22:10;94805.72;;;2.46;87.85
6435;BME280;3250;42.694;23.278;2023-12-20T08:24:35;94806.47;;;3.11;84.83
6435;BME280;3250;42.694;23.278;2023-12-20T08:27:00;94796.91;;;3.82;82.41
6435;BME280;3250;42.694;23.278;2023-12-20T08:29:26;94805.47;;;4.44;78.22
6435;BME280;3250;42.694;23.278;2023-12-20T08:31:52;94797.66;;;4.67;77.51
6435;BME280;3250;42.694;23.278;2023-12-20T08:34:19;94803.78;;;4.51;75.85
6435;BME280;3250;42.694;23.278;2023-12-20T08:36:44;94797.13;;;4.26;76.33
6435;BME280;3250;42.694;23.278;2023-12-20T08:39:10;94773.56;;;3.96;77.03
6435;BME280;3250;42.694;23.278;2023-12-20T08:41:35;94784.66;;;3.90;77.79
6435;BME280;3250;42.694;23.278;2023-12-20T08:44:02;94777.09;;;3.72;78.76
6435;BME280;3250;42.694;23.278;2023-12-20T08:46:27;94782.63;;;3.77;79.32
6435;BME280;3250;42.694;23.278;2023-12-20T08:48:53;94783.63;;;3.68;79.84
6435;BME280;3250;42.694;23.278;2023-12-20T08:51:18;94775.84;;;3.68;80.00
6435;BME280;3250;42.694;23.278;2023-12-20T08:53:44;94778.88;;;3.72;80.35
6435;BME280;3250;42.694;23.278;2023-12-20T08:56:11;94769.69;;;3.61;79.95
6435;BME280;3250;42.694;23.278;2023-12-20T08:58:37;94774.72;;;3.63;80.82
6435;BME280;3250;42.694;23.278;2023-12-20T09:01:02;94760.91;;;3.62;80.93
6435;BME280;3250;42.694;23.278;2023-12-20T09:03:28;94733.47;;;3.52;80.70
6435;BME280;3250;42.694;23.278;2023-12-20T09:05:53;94742.84;;;3.61;81.27
6435;BME280;3250;42.694;23.278;2023-12-20T09:08:19;94739.78;;;3.57;82.07
6435;BME280;3250;42.694;23.278;2023-12-20T09:10:44;94729.41;;;3.49;82.12
6435;BME280;3250;42.694;23.278;2023-12-20T09:13:10;94730.75;;;3.45;82.54
6435;BME280;3250;42.694;23.278;2023-12-20T09:15:35;94720.19;;;3.38;82.75
6435;BME280;3250;42.694;23.278;2023-12-20T09:18:01;94707.22;;;3.30;83.33
6435;BME280;3250;42.694;23.278;2023-12-20T09:20:27;94701.69;;;3.33;84.03
6435;BME280;3250;42.694;23.278;2023-12-20T09:22:53;94687.66;;;3.42;84.17
6435;BME280;3250;42.694;23.278;2023-12-20T09:25:19;94690.72;;;3.46;84.12
6435;BME280;3250;42.694;23.278;2023-12-20T09:27:44;94687.44;;;3.52;84.24
6435;BME280;3250;42.694;23.278;2023-12-20T09:30:09;94664.69;;;3.54;83.89
6435;BME280;3250;42.694;23.278;2023-12-20T09:32:35;94677.09;;;3.67;83.22
6435;BME280;3250;42.694;23.278;2023-12-20T09:35:01;94676.41;;;3.73;84.08
6435;BME280;3250;42.694;23.278;2023-12-20T09:37:27;94669.19;;;3.83;83.97
6435;BME280;3250;42.694;23.278;2023-12-20T09:39:54;94640.91;;;3.80;83.85
6435;BME280;3250;42.694;23.278;2023-12-20T09:42:25;94623.78;;;3.86;83.48
6435;BME280;3250;42.694;23.278;2023-12-20T09:44:55;94647.88;;;4.02;83.36
6435;BME280;3250;42.694;23.278;2023-12-20T09:47:23;94649.09;;;4.14;83.85
6435;BME280;3250;42.694;23.278;2023-12-20T09:49:50;94646.50;;;4.29;83.89
6435;BME280;3250;42.694;23.278;2023-12-20T09:52:18;94645.25;;;4.40;83.15
6435;BME280;3250;42.694;23.278;2023-12-20T09:54:44;94633.84;;;4.41;81.55
6435;BME280;3250;42.694;23.278;2023-12-20T09:57:10;94633.56;;;4.50;81.86
6435;BME280;3250;42.694;23.278;2023-12-20T09:59:35;94640.31;;;4.60;82.56
6435;BME280;3250;42.694;23.278;2023-12-20T10:02:01;94620.19;;;4.68;82.55
6435;BME280;3250;42.694;23.278;2023-12-20T10:04:31;94628.34;;;4.94;81.83
6435;BME280;3250;42.694;23.278;2023-12-20T10:07:01;94622.84;;;5.19;81.44
6435;BME280;3250;42.694;23.278;2023-12-20T10:09:32;94631.94;;;5.44;80.56
6435;BME280;3250;42.694;23.278;2023-12-20T10:11:58;94624.88;;;5.59;79.47
6435;BME280;3250;42.694;23.278;2023-12-20T10:14:24;94598.63;;;5.67;79.23
6435;BME280;3250;42.694;23.278;2023-12-20T10:16:49;94610.78;;;5.96;78.55
6435;BME280;3250;42.694;23.278;2023-12-20T10:19:19;94606.22;;;6.05;78.12
6435;BME280;3250;42.694;23.278;2023-12-20T10:21:44;94594.72;;;5.99;78.15
6435;BME280;3250;42.694;23.278;2023-12-20T10:24:16;94591.97;;;6.07;76.85
6435;BME280;3250;42.694;23.278;2023-12-20T10:26:42;94588.78;;;6.12;77.41
6435;BME280;3250;42.694;23.278;2023-12-20T10:29:08;94586.00;;;6.14;76.86
6435;BME280;3250;42.694;23.278;2023-12-20T10:31:33;94581.97;;;5.90;76.73
6435;BME280;3250;42.694;23.278;2023-12-20T10:34:01;94590.09;;;5.80;76.66
6435;BME280;3250;42.694;23.278;2023-12-20T10:36:28;94570.41;;;5.78;77.43
6435;BME280;3250;42.694;23.278;2023-12-20T10:38:55;94567.66;;;5.86;77.66
6435;BME280;3250;42.694;23.278;2023-12-20T10:41:30;94547.72;;;5.78;76.74
6435;BME280;3250;42.694;23.278;2023-12-20T10:44:01;94554.22;;;5.89;77.28
6435;BME280;3250;42.694;23.278;2023-12-20T10:46:27;94549.75;;;5.83;77.03
6435;BME280;3250;42.694;23.278;2023-12-20T10:48:56;94545.13;;;5.57;77.52
6435;BME280;3250;42.694;23.278;2023-12-20T10:51:23;94539.97;;;5.42;77.90
6435;BME280;3250;42.694;23.278;2023-12-20T10:53:50;94541.63;;;5.28;77.91
6435;BME280;3250;42.694;23.278;2023-12-20T10:56:19;94545.91;;;5.15;78.98
6435;BME280;3250;42.694;23.278;2023-12-20T10:58:48;94519.78;;;4.93;79.34
6435;BME280;3250;42.694;23.278;2023-12-20T11:01:15;94527.50;;;5.02;79.55
6435;BME280;3250;42.694;23.278;2023-12-20T11:03:52;94521.31;;;5.03;79.60
6435;BME280;3250;42.694;23.278;2023-12-20T11:06:38;94534.03;;;4.91;79.76
6435;BME280;3250;42.694;23.278;2023-12-20T11:09:22;94511.03;;;4.80;80.19
6435;BME280;3250;42.694;23.278;2023-12-20T11:11:56;94509.00;;;4.75;80.68
6435;BME280;3250;42.694;23.278;2023-12-20T11:14:35;94504.31;;;4.71;81.34
6435;BME280;3250;42.694;23.278;2023-12-20T11:17:10;94508.59;;;4.78;82.37
6435;BME280;3250;42.694;23.278;2023-12-20T11:22:28;94481.31;;;4.96;83.14
6435;BME280;3250;42.694;23.278;2023-12-20T11:24:58;94480.81;;;5.07;83.32
6435;BME280;3250;42.694;23.278;2023-12-20T11:27:24;94474.03;;;5.12;83.41
6435;BME280;3250;42.694;23.278;2023-12-20T11:29:54;94464.16;;;5.29;82.52
6435;BME280;3250;42.694;23.278;2023-12-20T11:37:21;94440.41;;;5.45;80.19
6435;BME280;3250;42.694;23.278;2023-12-20T11:39:56;94451.72;;;5.52;79.78
6435;BME280;3250;42.694;23.278;2023-12-20T11:42:25;94445.50;;;5.53;79.86
6435;BME280;3250;42.694;23.278;2023-12-20T11:44:50;94432.88;;;5.57;79.24
6435;BME280;3250;42.694;23.278;2023-12-20T11:47:16;94433.97;;;5.69;79.62
6435;BME280;3250;42.694;23.278;2023-12-20T11:49:44;94419.50;;;5.73;79.57
6435;BME280;3250;42.694;23.278;2023-12-20T11:52:12;94418.03;;;5.92;78.67
6435;BME280;3250;42.694;23.278;2023-12-20T11:54:38;94419.06;;;5.97;77.34
6435;BME280;3250;42.694;23.278;2023-12-20T11:57:04;94407.06;;;6.10;79.29
6435;BME280;3250;42.694;23.278;2023-12-20T11:59:30;94406.34;;;6.22;78.35
6435;BME280;3250;42.694;23.278;2023-12-20T12:01:56;94394.69;;;6.25;77.96
6435;BME280;3250;42.694;23.278;2023-12-20T12:04:26;94404.97;;;6.33;77.73
6435;BME280;3250;42.694;23.278;2023-12-20T12:06:52;94390.31;;;6.38;77.46
6435;BME280;3250;42.694;23.278;2023-12-20T12:09:17;94374.66;;;6.45;76.50
6435;BME280;3250;42.694;23.278;2023-12-20T12:11:43;94379.25;;;6.50;75.81
6435;BME280;3250;42.694;23.278;2023-12-20T12:14:09;94378.88;;;6.53;75.79
6435;BME280;3250;42.694;23.278;2023-12-20T12:16:35;94367.22;;;6.55;76.12
6435;BME280;3250;42.694;23.278;2023-12-20T12:19:00;94367.63;;;6.59;76.12
6435;BME280;3250;42.694;23.278;2023-12-20T12:21:27;94362.00;;;6.62;76.08
6435;BME280;3250;42.694;23.278;2023-12-20T12:23:52;94357.16;;;6.59;76.01
6435;BME280;3250;42.694;23.278;2023-12-20T12:26:18;94342.47;;;6.44;75.74
6435;BME280;3250;42.694;23.278;2023-12-20T12:28:45;94358.16;;;6.51;75.92
6435;BME280;3250;42.694;23.278;2023-12-20T12:31:14;94343.84;;;6.40;76.42
6435;BME280;3250;42.694;23.278;2023-12-20T12:33:41;94357.53;;;6.49;76.77
6435;BME280;3250;42.694;23.278;2023-12-20T12:36:07;94351.69;;;6.40;77.20
6435;BME280;3250;42.694;23.278;2023-12-20T12:38:33;94358.97;;;6.45;76.47
6435;BME280;3250;42.694;23.278;2023-12-20T12:41:00;94355.72;;;6.43;77.12
6435;BME280;3250;42.694;23.278;2023-12-20T12:43:25;94352.72;;;6.39;77.28
6435;BME280;3250;42.694;23.278;2023-12-20T12:45:51;94356.91;;;6.34;77.11
6435;BME280;3250;42.694;23.278;2023-12-20T12:48:17;94352.47;;;6.28;77.97
6435;BME280;3250;42.694;23.278;2023-12-20T12:50:42;94346.47;;;6.34;77.85
6435;BME280;3250;42.694;23.278;2023-12-20T12:53:08;94350.25;;;6.31;78.17
6435;BME280;3250;42.694;23.278;2023-12-20T12:55:34;94345.84;;;6.25;77.90
6435;BME280;3250;42.694;23.278;2023-12-20T12:58:00;94343.84;;;6.27;78.53
6435;BME280;3250;42.694;23.278;2023-12-20T13:00:26;94330.34;;;6.24;78.83
6435;BME280;3250;42.694;23.278;2023-12-20T13:02:51;94339.59;;;6.26;78.92
6435;BME280;3250;42.694;23.278;2023-12-20T13:05:17;94331.16;;;6.24;78.73
6435;BME280;3250;42.694;23.278;2023-12-20T13:07:43;94340.78;;;6.24;78.87
6435;BME280;3250;42.694;23.278;2023-12-20T13:10:10;94337.38;;;6.23;79.00
6435;BME280;3250;42.694;23.278;2023-12-20T13:12:36;94338.41;;;6.22;79.04
6435;BME280;3250;42.694;23.278;2023-12-20T13:15:02;94342.78;;;6.15;78.84
6435;BME280;3250;42.694;23.278;2023-12-20T13:17:29;94339.56;;;6.13;78.60
6435;BME280;3250;42.694;23.278;2023-12-20T13:19:54;94318.41;;;5.95;79.04
6435;BME280;3250;42.694;23.278;2023-12-20T13:22:20;94330.88;;;5.99;79.67
6435;BME280;3250;42.694;23.278;2023-12-20T13:24:45;94322.03;;;5.94;79.67